createdAt,value
2022-07-28T00:01:07.171Z,2.73
2022-07-28T00:03:33.950Z,2.97
2022-07-28T00:06:00.774Z,2.80
2022-07-28T00:08:27.597Z,3.07
2022-07-28T00:10:54.424Z,2.70
2022-07-28T00:13:22.358Z,2.63
2022-07-28T00:15:49.298Z,3.00
2022-07-28T00:18:16.207Z,2.90
2022-07-28T00:20:43.012Z,2.67
2022-07-28T00:23:09.937Z,2.60
2022-07-28T00:25:36.773Z,2.80
2022-07-28T00:28:03.710Z,2.90
2022-07-28T00:30:30.683Z,2.80
2022-07-28T00:32:57.567Z,2.90
2022-07-28T00:35:30.266Z,3.20
2022-07-28T00:37:57.560Z,3.10
2022-07-28T00:40:44.352Z,2.83
2022-07-28T00:43:11.198Z,2.80
2022-07-28T00:45:38.113Z,2.67
2022-07-28T00:48:05.307Z,2.57
2022-07-28T00:50:32.433Z,2.83
2022-07-28T00:53:00.166Z,2.77
2022-07-28T00:55:27.149Z,2.90
2022-07-28T00:57:54.214Z,3.40
2022-07-28T01:00:21.291Z,3.10
2022-07-28T01:02:48.442Z,2.90
2022-07-28T01:05:15.960Z,3.50
2022-07-28T01:08:26.710Z,3.20
2022-07-28T01:11:00.986Z,2.80
2022-07-28T01:13:55.474Z,3.20
2022-07-28T01:16:22.614Z,2.97
2022-07-28T01:19:11.123Z,2.50
2022-07-28T01:21:41.764Z,2.90
2022-07-28T01:24:31.315Z,2.93
2022-07-28T01:27:10.545Z,3.67
2022-07-28T01:30:01.562Z,2.80
2022-07-28T01:32:43.022Z,3.37
2022-07-28T01:35:29.153Z,2.93
2022-07-28T01:38:01.076Z,3.13
2022-07-28T01:40:33.392Z,3.17
2022-07-28T01:43:05.618Z,3.00
2022-07-28T01:45:38.388Z,3.10
2022-07-28T01:48:06.662Z,2.90
2022-07-28T01:50:35.139Z,3.17
2022-07-28T01:53:02.900Z,3.00
2022-07-28T01:55:31.746Z,2.70
2022-07-28T01:57:59.931Z,3.13
2022-07-28T02:00:28.040Z,3.47
2022-07-28T02:02:57.169Z,3.37
2022-07-28T02:05:26.036Z,3.00
2022-07-28T02:07:55.583Z,3.37
2022-07-28T02:10:24.424Z,3.20
2022-07-28T02:12:52.919Z,3.50
2022-07-28T02:15:22.096Z,3.10
2022-07-28T02:17:51.892Z,2.97
2022-07-28T02:20:19.702Z,3.10
2022-07-28T02:22:51.370Z,3.30
2022-07-28T02:25:20.476Z,3.10
2022-07-28T02:27:57.335Z,3.47
2022-07-28T02:30:46.830Z,3.50
2022-07-28T02:33:58.101Z,3.20
2022-07-28T02:36:26.814Z,3.23
2022-07-28T02:38:56.361Z,3.27
2022-07-28T02:41:27.107Z,3.13
2022-07-28T02:43:57.929Z,3.33
2022-07-28T02:46:29.091Z,3.20
2022-07-28T02:49:02.664Z,3.80
2022-07-28T02:51:30.551Z,3.70
2022-07-28T02:53:58.279Z,4.13
2022-07-28T02:56:26.387Z,4.00
2022-07-28T02:58:54.344Z,3.40
2022-07-28T03:01:22.814Z,3.90
2022-07-28T03:03:50.531Z,4.10
2022-07-28T03:06:26.500Z,3.90
2022-07-28T03:08:57.301Z,4.13
2022-07-28T03:11:24.675Z,4.10
2022-07-28T03:13:51.529Z,3.93
2022-07-28T03:16:18.542Z,4.13
2022-07-28T03:18:45.500Z,3.90
2022-07-28T03:21:12.318Z,4.13
2022-07-28T03:23:43.876Z,4.33
2022-07-28T03:26:19.393Z,4.57
2022-07-28T03:28:47.495Z,4.30
2022-07-28T03:31:15.383Z,4.50
2022-07-28T03:33:42.529Z,5.90
2022-07-28T03:36:13.568Z,5.30
2022-07-28T03:38:51.963Z,5.60
2022-07-28T03:41:19.521Z,5.07
2022-07-28T03:43:47.737Z,5.30
2022-07-28T03:46:14.765Z,5.17
2022-07-28T03:48:41.709Z,4.70
2022-07-28T03:51:09.351Z,5.37
2022-07-28T03:53:36.774Z,5.47
2022-07-28T03:56:03.999Z,5.27
2022-07-28T03:58:31.108Z,5.23
2022-07-28T04:00:58.587Z,5.00
2022-07-28T04:03:43.271Z,5.17
2022-07-28T04:06:15.266Z,6.20
2022-07-28T04:08:43.179Z,6.00
2022-07-28T04:11:10.062Z,6.80
2022-07-28T04:13:37.357Z,6.77
2022-07-28T04:16:05.830Z,6.07
2022-07-28T04:18:32.756Z,6.10
2022-07-28T04:20:59.710Z,6.33
2022-07-28T04:23:26.559Z,6.70
2022-07-28T04:25:53.499Z,6.70
2022-07-28T04:28:20.474Z,6.83
2022-07-28T04:30:47.436Z,6.70
2022-07-28T04:33:14.411Z,6.60
2022-07-28T04:35:41.346Z,7.00
2022-07-28T04:38:08.461Z,7.20
2022-07-28T04:40:35.336Z,6.87
2022-07-28T04:43:03.847Z,7.20
2022-07-28T04:45:31.054Z,6.90
2022-07-28T04:47:57.900Z,6.80
2022-07-28T04:50:25.375Z,6.73
2022-07-28T04:52:58.840Z,6.33
2022-07-28T04:55:26.422Z,6.90
2022-07-28T04:57:53.285Z,7.17
2022-07-28T05:00:22.113Z,7.07
2022-07-28T05:02:50.270Z,6.97
2022-07-28T05:05:17.442Z,7.00
2022-07-28T05:07:44.428Z,6.73
2022-07-28T05:10:12.806Z,7.67
2022-07-28T05:12:39.821Z,7.73
2022-07-28T05:15:08.312Z,7.57
2022-07-28T05:17:36.923Z,7.20
2022-07-28T05:20:06.165Z,7.40
2022-07-28T05:22:47.467Z,7.03
2022-07-28T05:25:19.712Z,7.40
2022-07-28T05:27:47.741Z,7.33
2022-07-28T05:30:15.667Z,7.27
2022-07-28T05:32:43.187Z,7.10
2022-07-28T05:35:10.240Z,7.53
2022-07-28T05:37:38.063Z,7.07
2022-07-28T05:40:10.384Z,7.20
2022-07-28T05:42:37.422Z,6.93
2022-07-28T05:45:16.467Z,7.00
2022-07-28T05:47:53.026Z,7.07
2022-07-28T05:50:25.202Z,7.13
2022-07-28T05:52:52.448Z,7.40
2022-07-28T05:55:19.712Z,7.07
2022-07-28T05:57:46.849Z,7.70
2022-07-28T06:00:16.994Z,7.70
2022-07-28T06:02:49.250Z,7.63
2022-07-28T06:05:18.319Z,7.60
2022-07-28T06:07:46.906Z,7.40
2022-07-28T06:10:15.685Z,8.00
2022-07-28T06:12:48.410Z,7.23
2022-07-28T06:15:21.507Z,7.70
2022-07-28T06:17:52.375Z,6.73
2022-07-28T06:20:22.357Z,7.10
2022-07-28T06:22:51.530Z,7.83
2022-07-28T06:25:23.386Z,7.67
2022-07-28T06:27:53.052Z,6.97
2022-07-28T06:30:20.385Z,7.20
2022-07-28T06:32:47.945Z,7.30
2022-07-28T06:35:16.895Z,7.30
2022-07-28T06:37:48.355Z,7.63
2022-07-28T06:40:17.199Z,7.10
2022-07-28T06:42:45.410Z,7.63
2022-07-28T06:45:19.643Z,7.00
2022-07-28T06:47:48.548Z,7.50
2022-07-28T06:50:25.865Z,6.70
2022-07-28T06:52:59.002Z,7.17
2022-07-28T06:55:34.838Z,6.80
2022-07-28T06:58:04.086Z,7.03
2022-07-28T07:00:31.343Z,7.20
2022-07-28T07:02:58.412Z,6.90
2022-07-28T07:05:26.114Z,7.33
2022-07-28T07:07:52.991Z,7.13
2022-07-28T07:10:20.098Z,6.20
2022-07-28T07:12:47.020Z,6.37
2022-07-28T07:15:14.027Z,7.33
2022-07-28T07:17:42.048Z,7.00
2022-07-28T07:20:10.155Z,6.33
2022-07-28T07:22:42.882Z,6.73
2022-07-28T07:25:11.265Z,7.00
2022-07-28T07:27:38.334Z,6.60
2022-07-28T07:30:07.087Z,7.37
2022-07-28T07:32:34.137Z,7.03
2022-07-28T07:35:01.007Z,6.77
2022-07-28T07:37:28.114Z,6.87
2022-07-28T07:39:54.951Z,7.03
2022-07-28T07:42:24.724Z,7.37
2022-07-28T07:44:51.974Z,6.83
2022-07-28T07:47:19.033Z,6.60
2022-07-28T07:49:46.545Z,7.00
2022-07-28T07:52:14.260Z,7.30
2022-07-28T07:54:41.866Z,7.00
2022-07-28T07:57:09.389Z,6.33
2022-07-28T07:59:36.333Z,6.97
2022-07-28T08:02:03.336Z,6.77
2022-07-28T08:04:30.401Z,6.70
2022-07-28T08:06:57.315Z,7.00
2022-07-28T08:09:25.025Z,6.57
2022-07-28T08:11:51.940Z,7.07
2022-07-28T08:14:19.043Z,6.97
2022-07-28T08:16:46.025Z,7.07
2022-07-28T08:19:12.892Z,6.57
2022-07-28T08:21:40.955Z,6.80
2022-07-28T08:24:08.152Z,7.40
2022-07-28T08:26:35.025Z,7.00
2022-07-28T08:29:01.899Z,7.00
2022-07-28T08:31:28.850Z,6.80
2022-07-28T08:33:56.663Z,7.30
2022-07-28T08:36:23.632Z,7.27
2022-07-28T08:38:50.506Z,7.40
2022-07-28T08:41:22.753Z,7.37
2022-07-28T08:43:52.893Z,7.27
2022-07-28T08:46:21.317Z,7.20
2022-07-28T08:48:49.444Z,7.40
2022-07-28T08:51:17.070Z,6.70
2022-07-28T08:53:44.328Z,6.83
2022-07-28T08:56:16.096Z,6.50
2022-07-28T08:58:43.403Z,7.10
2022-07-28T09:01:11.049Z,7.23
2022-07-28T09:03:39.273Z,6.70
2022-07-28T09:06:07.337Z,7.50
2022-07-28T09:08:34.415Z,6.27
2022-07-28T09:11:01.573Z,6.60
2022-07-28T09:13:28.759Z,6.40
2022-07-28T09:15:55.817Z,6.10
2022-07-28T09:18:23.127Z,6.60
2022-07-28T09:20:50.053Z,5.93
2022-07-28T09:23:42.901Z,6.30
2022-07-28T09:26:11.813Z,6.13
2022-07-28T09:28:55.340Z,6.20
2022-07-28T09:31:24.003Z,6.20
2022-07-28T09:34:02.563Z,5.83
2022-07-28T09:36:30.971Z,5.57
2022-07-28T09:38:59.178Z,6.37
2022-07-28T09:41:26.149Z,6.30
2022-07-28T09:43:55.150Z,5.70
2022-07-28T09:46:25.229Z,5.57
2022-07-28T09:48:54.370Z,5.70
2022-07-28T09:51:24.820Z,5.63
2022-07-28T09:53:52.408Z,6.30
2022-07-28T09:56:19.495Z,5.67
2022-07-28T09:58:58.103Z,5.97
2022-07-28T10:01:29.213Z,5.90
2022-07-28T10:04:04.081Z,5.97
2022-07-28T10:06:33.634Z,5.60
2022-07-28T10:09:03.007Z,5.53
2022-07-28T10:11:30.671Z,5.80
2022-07-28T10:14:07.364Z,5.50
2022-07-28T10:16:52.683Z,5.80
2022-07-28T10:19:19.559Z,5.30
2022-07-28T10:21:48.589Z,5.33
2022-07-28T10:24:27.270Z,5.30
2022-07-28T10:26:57.141Z,5.70
2022-07-28T10:29:24.883Z,5.67
2022-07-28T10:31:54.180Z,5.40
2022-07-28T10:34:44.989Z,5.50
2022-07-28T10:37:19.059Z,5.23
2022-07-28T10:39:58.661Z,5.23
2022-07-28T10:42:26.015Z,5.13
2022-07-28T10:44:54.620Z,5.23
2022-07-28T10:47:23.447Z,5.50
2022-07-28T10:49:51.273Z,5.83
2022-07-28T10:52:45.726Z,5.53
2022-07-28T10:55:23.194Z,5.30
2022-07-28T10:58:10.850Z,4.87
2022-07-28T11:00:56.127Z,4.60
2022-07-28T11:03:44.488Z,5.57
2022-07-28T11:06:29.571Z,5.20
2022-07-28T11:08:59.280Z,4.90
2022-07-28T11:11:51.986Z,4.70
2022-07-28T11:14:22.965Z,5.43
2022-07-28T11:17:15.952Z,5.43
2022-07-28T11:19:55.826Z,4.90
2022-07-28T11:22:34.260Z,5.20
2022-07-28T11:25:19.021Z,5.10
2022-07-28T11:27:50.273Z,5.10
2022-07-28T11:30:27.622Z,5.03
2022-07-28T11:32:54.426Z,5.20
2022-07-28T11:35:28.825Z,5.20
2022-07-28T11:38:02.052Z,5.40
2022-07-28T11:40:46.495Z,5.43
2022-07-28T11:43:26.633Z,5.30
2022-07-28T11:46:11.103Z,5.03
2022-07-28T11:48:40.757Z,5.50
2022-07-28T11:51:07.650Z,5.07
2022-07-28T11:53:38.574Z,5.83
2022-07-28T11:56:07.827Z,5.82
2022-07-28T11:58:35.103Z,5.45
2022-07-28T12:01:18.105Z,5.60
2022-07-28T12:03:49.403Z,5.20
2022-07-28T12:06:28.397Z,5.57
2022-07-28T12:08:58.684Z,5.30
2022-07-28T12:11:27.678Z,5.20
2022-07-28T12:14:02.366Z,5.35
2022-07-28T12:16:34.764Z,5.07
2022-07-28T12:19:03.615Z,4.93
2022-07-28T12:21:45.714Z,5.20
2022-07-28T12:24:16.696Z,4.90
2022-07-28T12:26:49.687Z,4.93
2022-07-28T12:29:19.801Z,5.50
2022-07-28T12:31:56.014Z,5.38
2022-07-28T12:34:26.656Z,5.50
2022-07-28T12:37:02.401Z,5.60
2022-07-28T12:39:30.945Z,5.63
2022-07-28T12:42:07.254Z,5.40
2022-07-28T12:44:37.996Z,5.03
2022-07-28T12:47:08.200Z,5.55
2022-07-28T12:49:37.144Z,5.30
2022-07-28T12:52:17.845Z,6.00
2022-07-28T12:54:52.078Z,5.43
2022-07-28T12:57:50.901Z,5.47
2022-07-28T13:00:23.959Z,5.20
2022-07-28T13:02:55.934Z,5.38
2022-07-28T13:05:53.563Z,5.28
2022-07-28T13:08:21.010Z,4.72
2022-07-28T13:10:52.373Z,4.90
2022-07-28T13:13:23.735Z,4.80
2022-07-28T13:16:14.567Z,4.50
2022-07-28T13:18:53.507Z,5.03
2022-07-28T13:21:56.953Z,4.47
2022-07-28T13:24:24.427Z,5.07
2022-07-28T13:26:51.429Z,4.65
2022-07-28T13:29:18.298Z,4.32
2022-07-28T13:31:45.311Z,5.20
2022-07-28T13:34:12.594Z,5.30
2022-07-28T13:36:40.023Z,4.75
2022-07-28T13:39:07.701Z,5.10
2022-07-28T13:41:57.719Z,4.68
2022-07-28T13:44:21.674Z,4.82
2022-07-28T13:46:50.103Z,4.82
2022-07-28T13:49:17.333Z,4.35
2022-07-28T13:51:48.824Z,4.85
2022-07-28T13:54:19.231Z,4.47
2022-07-28T13:57:05.556Z,4.93
2022-07-28T13:59:32.622Z,5.00
2022-07-28T14:02:03.296Z,4.80
2022-07-28T14:04:30.122Z,4.75
2022-07-28T14:06:57.097Z,4.60
2022-07-28T14:09:23.958Z,4.97
2022-07-28T14:11:53.630Z,4.22
2022-07-28T14:14:25.299Z,5.03
2022-07-28T14:16:54.427Z,4.63
2022-07-28T14:19:38.704Z,4.18
2022-07-28T14:22:12.765Z,4.50
2022-07-28T14:24:41.642Z,4.30
2022-07-28T14:27:10.398Z,4.28
2022-07-28T14:29:38.068Z,3.70
2022-07-28T14:32:05.388Z,4.35
2022-07-28T14:34:32.196Z,4.20
2022-07-28T14:37:05.803Z,4.25
2022-07-28T14:39:36.556Z,4.00
2022-07-28T14:42:04.191Z,4.07
2022-07-28T14:44:31.094Z,4.38
2022-07-28T14:46:58.111Z,4.38
2022-07-28T14:49:25.115Z,4.20
2022-07-28T14:51:52.004Z,4.10
2022-07-28T14:54:19.206Z,4.32
2022-07-28T14:56:46.304Z,4.15
2022-07-28T14:59:13.184Z,4.30
2022-07-28T15:01:40.431Z,4.80
2022-07-28T15:04:07.597Z,4.20
2022-07-28T15:06:34.458Z,4.13
2022-07-28T15:09:01.853Z,3.90
2022-07-28T15:11:28.651Z,4.00
2022-07-28T15:13:55.465Z,3.80
2022-07-28T15:16:22.346Z,4.22
2022-07-28T15:18:52.223Z,4.10
2022-07-28T15:21:19.732Z,4.00
2022-07-28T15:23:46.665Z,3.65
2022-07-28T15:26:14.004Z,4.13
2022-07-28T15:28:41.061Z,4.63
2022-07-28T15:31:08.463Z,4.22
2022-07-28T15:33:47.638Z,4.30
2022-07-28T15:36:15.797Z,4.50
2022-07-28T15:38:47.159Z,4.30
2022-07-28T15:41:15.158Z,3.92
2022-07-28T15:43:42.423Z,3.80
2022-07-28T15:46:11.806Z,4.10
2022-07-28T15:48:41.383Z,4.00
2022-07-28T15:51:09.063Z,4.10
2022-07-28T15:53:36.695Z,3.83
2022-07-28T15:56:04.756Z,4.00
2022-07-28T15:58:31.905Z,4.28
2022-07-28T16:01:01.028Z,4.80
2022-07-28T16:03:29.649Z,4.60
2022-07-28T16:05:56.687Z,3.92
2022-07-28T16:08:23.575Z,4.53
2022-07-28T16:10:52.482Z,3.92
2022-07-28T16:13:35.535Z,4.20
2022-07-28T16:16:05.423Z,3.92
2022-07-28T16:18:32.225Z,4.13
2022-07-28T16:20:59.142Z,4.15
2022-07-28T16:23:26.006Z,3.97
2022-07-28T16:25:52.843Z,4.05
2022-07-28T16:28:19.712Z,4.22
2022-07-28T16:30:47.938Z,3.80
2022-07-28T16:33:14.943Z,3.90
2022-07-28T16:35:41.745Z,4.10
2022-07-28T16:38:08.599Z,3.70
2022-07-28T16:40:35.552Z,4.03
2022-07-28T16:43:06.899Z,3.97
2022-07-28T16:45:35.505Z,3.80
2022-07-28T16:48:03.731Z,3.40
2022-07-28T16:50:31.585Z,4.00
2022-07-28T16:52:59.558Z,3.85
2022-07-28T16:55:27.020Z,3.90
2022-07-28T16:57:54.011Z,3.95
2022-07-28T17:00:21.627Z,3.80
2022-07-28T17:02:48.475Z,3.92
2022-07-28T17:05:15.517Z,4.00
2022-07-28T17:07:45.563Z,4.43
2022-07-28T17:10:14.857Z,4.05
2022-07-28T17:12:41.762Z,4.13
2022-07-28T17:15:19.945Z,3.70
2022-07-28T17:17:51.011Z,4.28
2022-07-28T17:20:18.903Z,4.10
2022-07-28T17:22:45.868Z,4.15
2022-07-28T17:25:35.582Z,4.15
2022-07-28T17:27:59.841Z,3.97
2022-07-28T17:30:29.825Z,3.92
2022-07-28T17:32:58.931Z,4.05
2022-07-28T17:35:31.469Z,3.90
2022-07-28T17:38:01.921Z,4.20
2022-07-28T17:40:28.783Z,3.67
2022-07-28T17:42:55.740Z,4.60
2022-07-28T17:45:23.908Z,4.50
2022-07-28T17:47:51.229Z,4.20
2022-07-28T17:50:18.399Z,3.70
2022-07-28T17:52:46.541Z,4.13
2022-07-28T17:55:37.380Z,4.43
2022-07-28T17:58:33.840Z,4.32
2022-07-28T18:01:09.886Z,3.97
2022-07-28T18:03:56.963Z,3.70
2022-07-28T18:06:32.780Z,4.32
2022-07-28T18:09:05.532Z,4.40
2022-07-28T18:11:57.165Z,3.97
2022-07-28T18:14:26.412Z,4.07
2022-07-28T18:16:53.283Z,4.22
2022-07-28T18:19:20.619Z,4.15
2022-07-28T18:21:47.445Z,3.88
2022-07-28T18:24:14.534Z,4.55
2022-07-28T18:26:41.570Z,3.83
2022-07-28T18:29:08.552Z,3.92
2022-07-28T18:31:35.520Z,4.00
2022-07-28T18:34:02.397Z,3.78
2022-07-28T18:36:29.968Z,4.28
2022-07-28T18:38:56.826Z,4.05
2022-07-28T18:41:23.786Z,4.55
2022-07-28T18:43:50.726Z,4.68
2022-07-28T18:46:17.631Z,4.15
2022-07-28T18:48:44.631Z,3.92
2022-07-28T18:51:14.919Z,4.20
2022-07-28T18:53:42.263Z,4.38
2022-07-28T18:56:09.103Z,3.90
2022-07-28T18:58:36.019Z,4.47
2022-07-28T19:01:02.841Z,4.18
2022-07-28T19:03:31.633Z,4.15
2022-07-28T19:05:58.443Z,4.00
2022-07-28T19:08:25.314Z,4.20
2022-07-28T19:10:52.185Z,4.00
2022-07-28T19:13:18.937Z,4.28
2022-07-28T19:15:45.786Z,3.85
2022-07-28T19:18:12.593Z,4.18
2022-07-28T19:20:40.124Z,3.83
2022-07-28T19:23:07.053Z,4.20
2022-07-28T19:25:36.182Z,4.03
2022-07-28T19:28:04.106Z,3.93
2022-07-28T19:30:32.227Z,4.10
2022-07-28T19:32:59.985Z,4.10
2022-07-28T19:35:27.047Z,3.90
2022-07-28T19:37:55.410Z,3.53
2022-07-28T19:40:25.139Z,3.97
2022-07-28T19:42:52.162Z,3.73
2022-07-28T19:45:19.032Z,4.00
2022-07-28T19:47:45.884Z,3.87
2022-07-28T19:50:16.878Z,3.77
2022-07-28T19:52:43.861Z,3.60
2022-07-28T19:55:10.681Z,3.40
2022-07-28T19:57:42.243Z,3.80
2022-07-28T20:00:10.446Z,3.80
2022-07-28T20:02:40.754Z,3.60
2022-07-28T20:05:08.433Z,3.33
2022-07-28T20:07:35.639Z,3.43
2022-07-28T20:10:02.493Z,3.40
2022-07-28T20:12:32.894Z,3.80
2022-07-28T20:15:01.182Z,3.40
2022-07-28T20:17:37.906Z,3.50
2022-07-28T20:20:08.650Z,3.60
2022-07-28T20:22:35.809Z,3.40
2022-07-28T20:25:02.847Z,3.33
2022-07-28T20:27:29.703Z,3.20
2022-07-28T20:29:58.814Z,3.80
2022-07-28T20:32:25.970Z,3.50
2022-07-28T20:34:52.983Z,3.20
2022-07-28T20:37:36.877Z,3.30
2022-07-28T20:40:08.889Z,3.20
2022-07-28T20:42:36.761Z,3.20
2022-07-28T20:45:04.594Z,3.17
2022-07-28T20:47:32.859Z,3.10
2022-07-28T20:50:00.318Z,3.40
2022-07-28T20:52:27.555Z,3.07
2022-07-28T20:54:55.148Z,3.20
2022-07-28T20:57:22.849Z,3.57
2022-07-28T20:59:51.899Z,3.13
2022-07-28T21:02:20.026Z,3.20
2022-07-28T21:04:50.148Z,3.40
2022-07-28T21:08:00.172Z,3.33
2022-07-28T21:10:06.636Z,3.00
2022-07-28T21:12:34.461Z,3.27
2022-07-28T21:15:01.368Z,3.43
2022-07-28T21:17:28.240Z,3.10
2022-07-28T21:19:55.643Z,3.77
2022-07-28T21:22:23.128Z,3.03
2022-07-28T21:24:55.132Z,3.10
2022-07-28T21:27:23.149Z,3.40
2022-07-28T21:32:17.774Z,3.40
2022-07-28T21:34:44.685Z,3.07
2022-07-28T21:37:12.883Z,2.73
2022-07-28T21:39:40.286Z,3.30
2022-07-28T21:42:08.896Z,3.23
2022-07-28T21:44:39.007Z,3.00
2022-07-28T21:47:05.921Z,3.67
2022-07-28T21:49:32.903Z,3.60
2022-07-28T21:51:59.994Z,3.70
2022-07-28T21:54:27.093Z,4.23
2022-07-28T21:56:54.177Z,3.67
2022-07-28T21:59:21.090Z,4.03
2022-07-28T22:01:48.042Z,3.87
2022-07-28T22:04:15.393Z,4.30
2022-07-28T22:06:45.986Z,4.70
2022-07-28T22:09:13.770Z,4.53
2022-07-28T22:11:40.707Z,4.60
2022-07-28T22:14:07.526Z,4.50
2022-07-28T22:16:34.391Z,4.63
2022-07-28T22:19:01.252Z,4.50
2022-07-28T22:21:28.110Z,4.90
2022-07-28T22:23:54.954Z,5.07
2022-07-28T22:26:21.832Z,4.50
2022-07-28T22:28:48.645Z,4.60
2022-07-28T22:31:15.518Z,4.80
2022-07-28T22:33:42.406Z,5.23
2022-07-28T22:36:09.537Z,4.63
2022-07-28T22:38:36.733Z,4.50
2022-07-28T22:41:03.883Z,5.23
2022-07-28T22:43:33.908Z,4.53
2022-07-28T22:46:01.139Z,4.53
2022-07-28T22:48:28.520Z,4.77
2022-07-28T22:50:55.426Z,4.30
2022-07-28T22:53:22.288Z,3.90
2022-07-28T22:55:49.258Z,4.43
2022-07-28T22:58:16.140Z,4.47
2022-07-28T23:00:43.599Z,4.30
2022-07-28T23:03:13.018Z,4.20
2022-07-28T23:05:40.418Z,4.47
2022-07-28T23:08:07.327Z,4.60
2022-07-28T23:10:34.671Z,4.60
2022-07-28T23:13:02.038Z,4.50
2022-07-28T23:15:41.269Z,5.30
2022-07-28T23:18:14.091Z,4.80
2022-07-28T23:20:42.038Z,5.23
2022-07-28T23:23:10.204Z,4.57
2022-07-28T23:25:39.631Z,5.07
2022-07-28T23:28:07.387Z,5.10
2022-07-28T23:30:34.483Z,5.00
2022-07-28T23:33:01.486Z,5.50
2022-07-28T23:35:28.333Z,6.17
2022-07-28T23:37:55.336Z,5.13
2022-07-28T23:40:22.603Z,4.93
2022-07-28T23:42:49.546Z,5.33
2022-07-28T23:45:16.344Z,5.30
2022-07-28T23:47:43.251Z,5.40
2022-07-28T23:50:10.266Z,5.63
2022-07-28T23:52:37.136Z,5.17
2022-07-28T23:55:05.154Z,5.40
2022-07-28T23:57:32.032Z,5.13
